Aérodrome :
LOGIN :

S'inscrire | Disclaimer

   EN    FR    IT 

 










Légende :    VFR   VFR Marginal   IFR   IFR Intensif   IFR Très Intensif
Visi : 
Plafond : 
>= 8 km
>= 3000ft
5 à 8 km
1000 à 3000 ft
1500m à 5 km
500 à 1000 ft
800 à 1500m
200 à 500 ft
< 800m
< 200 ft
Symboles :   Orages  Brouillard  Fortes neiges  Fortes précipitations  Vent > 20 kt
SIGMETs :   Divers  Orages  Givrage  Turbulence  Onde Orograph.  Cendres Volcan.






- Altitude de l'aérodrome : 68 ft


ESCM - Uppsala

DERNIER METAR :
  • 100450Z AUTO 31008KT 9999 NCD M06/M07 Q1006

METARs EXPIRÉS :
  • 100420Z AUTO 31006KT 9999 NCD M06/M07 Q1006
  • 100350Z AUTO 32008KT 9999 NCD M06/M07 Q1005
  • 100320Z AUTO 32009KT 9999 NCD M05/M06 Q1005
  • 100250Z AUTO 32008KT 9999 NCD M05/M06 Q1004
  • 100220Z AUTO 31008KT 9999 NCD M04/M05 Q1003

Prévision TAF périmée.



MET'MAP, la Météo Aéronautique d'un coup d'oeil ! - Copyright ORBIFLY Décembre 2007 - Disclaimer

ORBIFLY MET'MAP TEAM :

Programmation & Développement : Alexandra Zaïnal
Sur une idée originale de : Baudouin d'Aumeries
Assistance à la programmation : Marc-Olivier Méhu
Soutien technique & logistique : Manuel Goepfert

Contact : metmap@orbifly.com




SOURCES & CREDITS :

   NOAA